Time;durP1;ratioP1;P1;durP2;ratioP2;P2;SDS_P1;SDS_P2;PMS_P1;PMS_P2;Temp;Humidity;BMP_temperature;BMP_pressure;BME280_temperature;BME280_humidity;BME280_pressure;Samples;Min_cycle;Max_cycle;Signal;HPM_P1;HPM_P2
2021/06/26 00:01:00;;;;;;;34.22;20.40;;;12.40;99.90;;;;;;5062635;28;20003;-77
2021/06/26 00:03:26;;;;;;;;;;;12.40;99.90;;;;;;5041085;28;20041;-78
2021/06/26 00:05:54;;;;;;;31.77;21.08;;;12.40;99.90;;;;;;5047126;28;20003;-78
2021/06/26 00:08:20;;;;;;;35.72;21.52;;;12.30;99.90;;;;;;5048274;28;20485;-78
2021/06/26 00:10:46;;;;;;;37.90;21.50;;;12.30;99.90;;;;;;5050899;28;20037;-78
2021/06/26 00:13:13;;;;;;;30.42;20.25;;;12.20;99.90;;;;;;5050837;28;20611;-78
2021/06/26 00:15:39;;;;;;;35.47;21.30;;;12.20;99.90;;;;;;5052496;28;20141;-76
2021/06/26 00:18:07;;;;;;;35.67;22.27;;;12.20;99.90;;;;;;5052456;28;20102;-78
2021/06/26 00:20:34;;;;;;;35.45;21.20;;;12.30;99.90;;;;;;5051097;28;20064;-78
2021/06/26 00:23:00;;;;;;;;;;;12.20;99.90;;;;;;5051789;28;20075;-78
2021/06/26 00:25:26;;;;;;;26.13;17.85;;;12.10;99.90;;;;;;5052011;28;19924;-78
2021/06/26 00:27:52;;;;;;;;;;;12.20;99.90;;;;;;5052341;28;20053;-78
2021/06/26 00:30:19;;;;;;;36.50;20.02;;;12.10;99.90;;;;;;5050651;28;20741;-78
2021/06/26 00:32:46;;;;;;;35.10;20.10;;;12.10;99.90;;;;;;5049327;28;20056;-78
2021/06/26 00:35:14;;;;;;;34.53;21.02;;;12.20;99.90;;;;;;5044453;28;20144;-78
2021/06/26 00:37:41;;;;;;;33.53;20.40;;;12.20;99.90;;;;;;5045714;28;20048;-77
2021/06/26 00:40:08;;;;;;;29.58;19.13;;;12.10;99.90;;;;;;5031686;28;20485;-78
2021/06/26 00:42:35;;;;;;;29.73;18.58;;;12.10;99.90;;;;;;5031371;28;20041;-78
2021/06/26 00:45:01;;;;;;;32.72;20.33;;;12.20;99.90;;;;;;5030578;28;20037;-77
2021/06/26 00:47:27;;;;;;;;;;;12.20;99.90;;;;;;5031490;28;20083;-78
2021/06/26 00:49:53;;;;;;;32.00;21.52;;;12.20;99.90;;;;;;5031047;28;19916;-77
2021/06/26 00:52:18;;;;;;;;;;;12.10;99.90;;;;;;5031119;28;20048;-77
2021/06/26 00:54:45;;;;;;;27.02;18.25;;;12.00;99.90;;;;;;5031257;28;19928;-78
2021/06/26 00:57:12;;;;;;;32.35;20.20;;;12.10;99.90;;;;;;5047233;28;20086;-78
2021/06/26 00:59:38;;;;;;;29.77;19.85;;;12.10;99.90;;;;;;5050696;28;20087;-78
2021/06/26 01:02:06;;;;;;;39.08;22.08;;;12.00;99.90;;;;;;5050485;28;20052;-78
2021/06/26 01:04:32;;;;;;;34.80;21.45;;;12.00;99.90;;;;;;5051947;28;20496;-77
2021/06/26 01:06:58;;;;;;;;;;;12.00;99.90;;;;;;5045050;28;20045;-78
2021/06/26 01:09:25;;;;;;;28.70;18.98;;;12.00;99.90;;;;;;5052399;28;19924;-78
2021/06/26 01:11:57;;;;;;;40.72;22.98;;;11.80;99.90;;;;;;5039408;28;20051;-78
2021/06/26 01:14:24;;;;;;;35.30;21.92;;;11.90;99.90;;;;;;5047977;28;20049;-78
2021/06/26 01:16:50;;;;;;;39.63;23.85;;;11.90;99.90;;;;;;5047158;28;20072;-77
2021/06/26 01:19:16;;;;;;;;;;;11.80;99.90;;;;;;5048371;28;20127;-77
2021/06/26 01:21:42;;;;;;;32.53;20.52;;;11.90;99.90;;;;;;5031399;28;19991;-78
2021/06/26 01:24:08;;;;;;;;;;;11.90;99.90;;;;;;5047376;28;20045;-78
2021/06/26 01:26:36;;;;;;;34.78;21.58;;;11.90;99.90;;;;;;5046761;28;19932;-78
2021/06/26 01:29:08;;;;;;;33.58;22.38;;;11.80;99.90;;;;;;5047440;28;20113;-78
2021/06/26 01:31:33;;;;;;;42.47;21.65;;;11.80;99.90;;;;;;5048761;28;20049;-78
2021/06/26 01:33:59;;;;;;;;;;;11.80;99.90;;;;;;5037794;28;20049;-78
2021/06/26 01:36:25;;;;;;;32.40;19.67;;;11.70;99.90;;;;;;5049704;28;19920;-78
2021/06/26 01:38:54;;;;;;;;;;;11.80;99.90;;;;;;5035756;28;20053;-76
2021/06/26 01:41:21;;;;;;;38.55;21.02;;;11.80;99.90;;;;;;5035712;28;19917;-78
2021/06/26 01:43:47;;;;;;;37.55;21.55;;;11.80;99.90;;;;;;5034372;28;20549;-77
2021/06/26 01:46:13;;;;;;;;;;;11.80;99.90;;;;;;5031406;28;20128;-78
2021/06/26 01:48:38;;;;;;;35.00;20.33;;;11.80;99.90;;;;;;5031595;28;19921;-78
2021/06/26 01:51:05;;;;;;;;;;;11.70;99.90;;;;;;5030994;28;20122;-78
2021/06/26 01:53:31;;;;;;;26.98;18.70;;;11.60;99.90;;;;;;5030025;28;19924;-79
2021/06/26 01:55:56;;;;;;;;;;;11.70;99.90;;;;;;5031927;28;20037;-77
2021/06/26 01:58:24;;;;;;;28.20;17.80;;;11.60;99.90;;;;;;5062368;28;19917;-78
2021/06/26 02:00:51;;;;;;;34.45;20.33;;;11.50;99.90;;;;;;5029965;28;20124;-78
2021/06/26 02:03:17;;;;;;;34.67;20.60;;;11.60;99.90;;;;;;5030266;28;20045;-77
2021/06/26 02:05:43;;;;;;;34.17;21.83;;;11.50;99.90;;;;;;5043260;28;20076;-78
2021/06/26 02:08:09;;;;;;;;;;;11.60;99.90;;;;;;5049938;28;20075;-78
2021/06/26 02:10:35;;;;;;;39.45;22.77;;;11.60;99.90;;;;;;5047776;28;19921;-78
2021/06/26 02:13:01;;;;;;;;;;;11.60;99.90;;;;;;5049861;28;20486;-78
2021/06/26 02:15:27;;;;;;;33.13;19.58;;;11.60;99.90;;;;;;5050161;28;19921;-77
2021/06/26 02:17:54;;;;;;;32.15;19.48;;;11.50;99.90;;;;;;5050216;28;20058;-78
2021/06/26 02:20:20;;;;;;;30.42;19.50;;;11.60;99.90;;;;;;5049984;28;20049;-78
2021/06/26 02:22:46;;;;;;;31.70;19.45;;;11.60;99.90;;;;;;5050687;28;20094;-78
2021/06/26 02:25:13;;;;;;;29.35;19.55;;;11.60;99.90;;;;;;5051164;28;20049;-78
2021/06/26 02:27:40;;;;;;;33.30;20.42;;;11.60;99.90;;;;;;5050451;28;20053;-78
2021/06/26 02:30:06;;;;;;;;;;;11.60;99.90;;;;;;5049717;28;20094;-78
2021/06/26 02:32:32;;;;;;;30.35;19.27;;;11.70;99.90;;;;;;5036910;28;19920;-78
2021/06/26 02:34:58;;;;;;;;;;;11.70;99.90;;;;;;5050525;28;20387;-78
2021/06/26 02:37:24;;;;;;;32.28;18.10;;;11.70;99.90;;;;;;5046030;28;19924;-78
2021/06/26 02:39:50;;;;;;;;;;;11.60;99.90;;;;;;5028958;28;20042;-78
2021/06/26 02:42:16;;;;;;;31.80;19.38;;;11.60;99.90;;;;;;5029085;28;19924;-78
2021/06/26 02:44:42;;;;;;;33.25;19.15;;;11.60;99.90;;;;;;5033932;28;20128;-77
2021/06/26 02:47:08;;;;;;;;;;;11.60;99.90;;;;;;5037269;28;20132;-78
2021/06/26 02:49:33;;;;;;;32.25;17.92;;;11.50;99.90;;;;;;5036806;28;19921;-78
2021/06/26 02:51:59;;;;;;;;;;;11.50;99.90;;;;;;5029951;28;20041;-78
2021/06/26 02:54:25;;;;;;;26.90;16.58;;;11.50;99.90;;;;;;5038409;28;19932;-76
2021/06/26 02:56:51;;;;;;;;;;;11.50;99.90;;;;;;5042027;28;20098;-75
2021/06/26 02:59:17;;;;;;;26.20;16.63;;;11.40;99.90;;;;;;5039690;28;19924;-75
2021/06/26 03:01:44;;;;;;;25.83;15.88;;;11.50;99.90;;;;;;5040936;28;20552;-76
2021/06/26 03:04:09;;;;;;;;;;;11.40;99.90;;;;;;5050015;28;20037;-75
2021/06/26 03:06:35;;;;;;;26.70;16.67;;;11.50;99.90;;;;;;5048768;28;19924;-75
2021/06/26 03:09:01;;;;;;;;;;;11.50;99.90;;;;;;5032726;28;20043;-75
2021/06/26 03:11:26;;;;;;;25.45;15.80;;;11.50;99.90;;;;;;5029640;28;20387;-76
2021/06/26 03:13:52;;;;;;;;;;;11.40;99.90;;;;;;5030966;28;20128;-75
2021/06/26 03:16:18;;;;;;;25.27;17.35;;;11.40;99.90;;;;;;5029108;28;19976;-74
2021/06/26 03:18:44;;;;;;;;;;;11.40;99.90;;;;;;5047647;28;20099;-75
2021/06/26 03:21:13;;;;;;;25.45;16.02;;;11.30;99.90;;;;;;5034997;28;19920;-76
2021/06/26 03:23:40;;;;;;;29.38;17.33;;;11.30;99.90;;;;;;5028725;28;20038;-75
2021/06/26 03:26:08;;;;;;;24.38;16.25;;;11.30;99.90;;;;;;5030758;28;20095;-75
2021/06/26 03:28:34;;;;;;;27.80;16.50;;;11.30;99.90;;;;;;5029214;28;20053;-75
2021/06/26 03:31:01;;;;;;;23.77;15.30;;;11.20;99.90;;;;;;5027832;28;20200;-77
2021/06/26 03:33:27;;;;;;;26.75;16.55;;;11.20;99.90;;;;;;5029084;28;20131;-77
2021/06/26 03:35:53;;;;;;;24.15;15.15;;;11.30;99.90;;;;;;5043429;28;20052;-78
2021/06/26 03:38:19;;;;;;;;;;;11.30;99.90;;;;;;5037846;28;20049;-78
2021/06/26 03:40:44;;;;;;;24.30;14.90;;;11.30;99.90;;;;;;5028450;28;20347;-78
2021/06/26 03:43:10;;;;;;;;;;;11.30;99.90;;;;;;5029624;28;20037;-78
2021/06/26 03:45:36;;;;;;;26.70;14.40;;;11.30;99.90;;;;;;5034134;28;19921;-75
2021/06/26 03:48:02;;;;;;;;;;;11.40;99.90;;;;;;5035470;28;20045;-78
2021/06/26 03:50:27;;;;;;;20.40;13.77;;;11.50;99.90;;;;;;5039079;28;19924;-75
2021/06/26 03:52:54;;;;;;;20.20;13.98;;;11.60;99.90;;;;;;5040618;28;20048;-75
2021/06/26 03:55:20;;;;;;;;;;;11.70;99.90;;;;;;5053879;28;20036;-75
2021/06/26 03:57:47;;;;;;;20.42;13.18;;;11.80;99.90;;;;;;5053282;28;19962;-75
2021/06/26 04:00:13;;;;;;;19.60;13.43;;;11.70;99.90;;;;;;5051751;28;20067;-75
2021/06/26 04:02:39;;;;;;;28.33;15.00;;;11.70;99.90;;;;;;5052129;28;20465;-75
2021/06/26 04:05:05;;;;;;;;;;;11.70;99.90;;;;;;5054216;28;20061;-74
2021/06/26 04:07:31;;;;;;;21.60;13.15;;;11.80;99.90;;;;;;5052919;28;19922;-75
2021/06/26 04:09:57;;;;;;;;;;;11.70;99.90;;;;;;5055458;28;20123;-77
2021/06/26 04:12:22;;;;;;;22.50;15.93;;;11.90;99.90;;;;;;5050173;28;19943;-77
2021/06/26 04:14:48;;;;;;;;;;;12.00;99.90;;;;;;5049485;28;20036;-76
2021/06/26 04:17:14;;;;;;;19.25;12.98;;;12.00;99.90;;;;;;5051389;28;19928;-77
2021/06/26 04:19:39;;;;;;;;;;;12.10;99.90;;;;;;5032551;28;20045;-76
2021/06/26 04:22:05;;;;;;;18.80;12.40;;;12.20;99.90;;;;;;5031888;28;20386;-75
2021/06/26 04:24:31;;;;;;;18.88;12.35;;;12.40;99.90;;;;;;5032443;28;20049;-75
2021/06/26 04:26:57;;;;;;;;;;;12.80;99.90;;;;;;5032375;28;20045;-75
2021/06/26 04:29:24;;;;;;;17.77;12.50;;;12.70;99.90;;;;;;5031616;28;19925;-78
2021/06/26 04:31:49;;;;;;;17.98;11.60;;;12.70;99.90;;;;;;5031264;28;20113;-76
2021/06/26 04:34:15;;;;;;;;;;;12.80;99.90;;;;;;5033840;28;20128;-76
2021/06/26 04:36:42;;;;;;;18.67;11.82;;;12.90;99.90;;;;;;5051464;28;20324;-76
2021/06/26 04:39:08;;;;;;;17.67;10.98;;;13.40;99.90;;;;;;5051433;28;20044;-77
2021/06/26 04:41:36;;;;;;;15.65;11.52;;;13.60;99.90;;;;;;5051076;28;20041;-76
2021/06/26 04:44:04;;;;;;;15.80;11.07;;;13.50;99.90;;;;;;5051876;28;20052;-78
2021/06/26 04:46:30;;;;;;;16.58;10.98;;;13.40;99.90;;;;;;5050378;28;20727;-78
2021/06/26 04:48:56;;;;;;;19.08;11.00;;;13.40;99.90;;;;;;5053392;28;20080;-78
2021/06/26 04:51:22;;;;;;;17.38;11.43;;;13.50;99.90;;;;;;5050608;28;20040;-78
2021/06/26 04:53:48;;;;;;;;;;;13.50;99.90;;;;;;5051730;28;20091;-76
2021/06/26 04:56:14;;;;;;;22.92;11.52;;;13.60;99.90;;;;;;5048472;28;20354;-76
2021/06/26 04:58:40;;;;;;;;;;;13.70;99.90;;;;;;5052432;28;20048;-75
2021/06/26 05:01:07;;;;;;;18.10;10.60;;;13.90;99.90;;;;;;5043873;28;19916;-76
2021/06/26 05:03:33;;;;;;;19.27;12.00;;;14.00;99.90;;;;;;5034014;28;20070;-77
2021/06/26 05:06:00;;;;;;;16.23;10.63;;;14.00;99.90;;;;;;5040135;28;20090;-76
2021/06/26 05:08:26;;;;;;;15.77;10.25;;;14.10;99.90;;;;;;5049495;28;20041;-76
2021/06/26 05:10:53;;;;;;;20.55;10.00;;;14.00;99.90;;;;;;5042532;28;20044;-77
2021/06/26 05:13:19;;;;;;;14.80;10.05;;;14.10;99.90;;;;;;5039505;28;20077;-74
2021/06/26 05:15:45;;;;;;;16.83;10.48;;;14.10;99.90;;;;;;5038815;28;20176;-75
2021/06/26 05:18:11;;;;;;;;;;;14.20;99.90;;;;;;5042017;28;20120;-75
2021/06/26 05:20:39;;;;;;;18.55;10.77;;;14.20;99.90;;;;;;5039252;28;19924;-75
2021/06/26 05:23:16;;;;;;;15.77;11.02;;;14.20;99.90;;;;;;5045011;28;20088;-75
2021/06/26 05:25:43;;;;;;;15.73;10.02;;;14.30;99.90;;;;;;5045260;28;20041;-75
2021/06/26 05:28:10;;;;;;;16.95;10.40;;;14.40;99.90;;;;;;5051161;28;20044;-75
2021/06/26 05:30:36;;;;;;;13.48;10.07;;;14.50;99.90;;;;;;5050030;28;20041;-75
2021/06/26 05:33:03;;;;;;;15.20;10.23;;;14.50;99.90;;;;;;5051341;28;20401;-75
2021/06/26 05:35:29;;;;;;;17.15;9.38;;;14.50;99.90;;;;;;5050575;28;20044;-75
2021/06/26 05:37:55;;;;;;;;;;;14.60;99.90;;;;;;5043326;28;20191;-74
2021/06/26 05:40:21;;;;;;;17.67;9.57;;;14.60;99.90;;;;;;5027528;28;19924;-74
2021/06/26 05:42:46;;;;;;;;;;;14.60;99.90;;;;;;5030405;28;20033;-75
2021/06/26 05:45:12;;;;;;;15.43;9.70;;;14.60;99.90;;;;;;5030201;28;19923;-75
2021/06/26 05:47:38;;;;;;;;;;;14.80;99.90;;;;;;5049542;28;20190;-75
2021/06/26 05:50:04;;;;;;;13.98;10.13;;;15.00;99.90;;;;;;5057451;28;19916;-74
2021/06/26 05:52:30;;;;;;;16.65;11.15;;;15.20;99.90;;;;;;5048468;28;20038;-74
2021/06/26 05:54:58;;;;;;;;;;;15.20;99.90;;;;;;5044647;28;20048;-75
2021/06/26 05:57:24;;;;;;;14.77;9.85;;;15.30;99.90;;;;;;5045610;28;19923;-74
2021/06/26 05:59:49;;;;;;;;;;;15.40;99.90;;;;;;5050202;28;20033;-75
2021/06/26 06:02:16;;;;;;;15.18;9.18;;;15.50;99.90;;;;;;5050298;28;19916;-75
2021/06/26 06:04:42;;;;;;;;;;;15.70;99.90;;;;;;5050104;28;20063;-75
2021/06/26 06:07:09;;;;;;;15.27;9.73;;;15.70;99.90;;;;;;5038901;28;19974;-75
2021/06/26 06:09:35;;;;;;;16.20;10.07;;;15.80;99.90;;;;;;5029085;28;20045;-75
2021/06/26 06:12:00;;;;;;;;;;;15.90;99.90;;;;;;5031516;28;20052;-76
2021/06/26 06:14:26;;;;;;;14.32;9.68;;;16.00;99.90;;;;;;5030261;28;20018;-76
2021/06/26 06:16:52;;;;;;;;;;;16.20;99.90;;;;;;5047014;28;20064;-76
2021/06/26 06:19:18;;;;;;;11.23;8.02;;;16.70;99.90;;;;;;5057731;28;19920;-78
2021/06/26 06:21:44;;;;;;;;;;;17.80;99.90;;;;;;5044127;28;20041;-77
2021/06/26 06:24:10;;;;;;;12.90;8.15;;;18.90;99.90;;;;;;5054322;28;19926;-76
2021/06/26 06:26:36;;;;;;;13.98;8.75;;;18.90;99.90;;;;;;5044629;28;20577;-78
2021/06/26 06:29:02;;;;;;;11.13;8.63;;;18.80;99.90;;;;;;5049584;28;20041;-77
2021/06/26 06:31:30;;;;;;;17.15;9.98;;;18.60;99.90;;;;;;5050151;28;20414;-77
2021/06/26 06:33:56;;;;;;;12.40;8.77;;;18.40;99.90;;;;;;5037497;28;20048;-78
2021/06/26 06:36:22;;;;;;;;;;;18.70;99.90;;;;;;5049790;28;20096;-80
2021/06/26 06:38:49;;;;;;;13.52;9.25;;;18.70;99.90;;;;;;5050292;28;19920;-77
2021/06/26 06:41:16;;;;;;;10.73;8.52;;;18.80;99.90;;;;;;5039126;28;20372;-77
2021/06/26 06:43:43;;;;;;;13.07;8.88;;;18.70;99.70;;;;;;5050086;28;20036;-78
2021/06/26 06:46:09;;;;;;;14.82;9.02;;;18.50;99.90;;;;;;5048744;28;20045;-78
2021/06/26 06:48:35;;;;;;;12.75;8.45;;;18.40;99.90;;;;;;5049376;28;20449;-78
2021/06/26 06:51:01;;;;;;;;;;;18.30;99.50;;;;;;5049195;28;20041;-78
2021/06/26 06:53:26;;;;;;;10.60;7.32;;;18.30;99.30;;;;;;5049997;28;19920;-77
2021/06/26 06:55:52;;;;;;;;;;;18.50;98.90;;;;;;5046616;28;20037;-78
2021/06/26 06:58:19;;;;;;;10.27;7.80;;;18.60;97.10;;;;;;5029158;28;19940;-78
2021/06/26 07:00:45;;;;;;;8.95;6.80;;;18.60;98.60;;;;;;5029300;28;20038;-78
2021/06/26 07:03:11;;;;;;;10.73;7.68;;;18.70;99.00;;;;;;5029146;28;20065;-78
2021/06/26 07:05:37;;;;;;;14.20;7.75;;;18.60;97.00;;;;;;5041422;28;20041;-77
2021/06/26 07:08:03;;;;;;;;;;;18.60;96.80;;;;;;5049872;28;20052;-78
2021/06/26 07:10:35;;;;;;;12.25;7.88;;;18.50;96.70;;;;;;5050345;28;20381;-79
2021/06/26 07:13:01;;;;;;;;;;;18.50;97.20;;;;;;5049025;28;20041;-78
2021/06/26 07:15:27;;;;;;;13.95;7.90;;;18.60;97.40;;;;;;5050102;28;19916;-79
2021/06/26 07:17:52;;;;;;;;;;;18.60;97.00;;;;;;5050298;28;20045;-77
2021/06/26 07:20:18;;;;;;;12.52;8.30;;;18.60;95.90;;;;;;5048409;28;20003;-79
2021/06/26 07:22:44;;;;;;;10.35;7.40;;;18.70;94.60;;;;;;5048192;28;20037;-80
2021/06/26 07:25:10;;;;;;;;;;;18.80;96.30;;;;;;5040313;28;20038;-80
2021/06/26 07:27:35;;;;;;;9.43;7.03;;;18.80;94.10;;;;;;5033727;28;19925;-79
2021/06/26 07:30:01;;;;;;;;;;;18.80;95.70;;;;;;5029075;28;20045;-80
2021/06/26 07:32:27;;;;;;;9.57;7.22;;;18.80;96.50;;;;;;5051562;28;19923;-80
2021/06/26 07:34:52;;;;;;;;;;;18.70;95.50;;;;;;5045617;28;20128;-79
2021/06/26 07:37:18;;;;;;;8.50;6.15;;;18.70;93.80;;;;;;5046205;28;20285;-79
2021/06/26 07:39:44;;;;;;;;;;;18.70;95.80;;;;;;5028878;28;20048;-77
2021/06/26 07:42:10;;;;;;;9.77;6.35;;;18.70;95.90;;;;;;5029614;28;19917;-76
2021/06/26 07:44:36;;;;;;;11.20;6.32;;;18.70;95.30;;;;;;5030865;28;20050;-76
2021/06/26 07:47:02;;;;;;;;;;;18.80;95.10;;;;;;5030959;28;20096;-76
2021/06/26 07:49:27;;;;;;;8.55;6.30;;;18.90;95.20;;;;;;5030617;28;19924;-76
2021/06/26 07:51:53;;;;;;;10.77;6.88;;;18.90;94.30;;;;;;5032592;28;20057;-76
2021/06/26 07:54:19;;;;;;;9.95;7.10;;;19.00;95.40;;;;;;5041224;28;20444;-77
2021/06/26 07:56:46;;;;;;;12.05;7.28;;;19.10;95.70;;;;;;5038322;28;20257;-78
2021/06/26 07:59:12;;;;;;;11.43;8.02;;;19.10;95.70;;;;;;5028732;28;20042;-78
2021/06/26 08:01:38;;;;;;;12.50;7.25;;;19.10;95.60;;;;;;5027433;28;20120;-76
2021/06/26 08:04:04;;;;;;;;;;;19.00;96.80;;;;;;5029697;28;20129;-76
2021/06/26 08:06:31;;;;;;;13.50;7.68;;;19.20;94.50;;;;;;5049652;28;19939;-76
2021/06/26 08:08:56;;;;;;;10.20;7.68;;;19.30;94.70;;;;;;5048367;28;20087;-77
2021/06/26 08:11:22;;;;;;;;;;;19.90;93.20;;;;;;5049020;28;20032;-77
2021/06/26 08:13:51;;;;;;;11.60;6.07;;;20.00;91.10;;;;;;5048232;28;19924;-77
2021/06/26 08:16:17;;;;;;;14.23;6.82;;;20.60;92.70;;;;;;5047832;28;20041;-76
2021/06/26 08:18:43;;;;;;;13.30;7.55;;;20.50;91.10;;;;;;5049642;28;20049;-76
2021/06/26 08:21:09;;;;;;;13.25;7.30;;;20.70;91.80;;;;;;5048287;28;20047;-77
2021/06/26 08:23:35;;;;;;;8.88;6.70;;;20.80;91.00;;;;;;5048535;28;20037;-76
2021/06/26 08:26:01;;;;;;;11.07;6.95;;;21.30;91.90;;;;;;5048523;28;20493;-76
2021/06/26 08:28:28;;;;;;;10.07;7.07;;;21.50;89.80;;;;;;5048560;28;20513;-76
2021/06/26 08:30:53;;;;;;;9.45;7.28;;;21.20;89.70;;;;;;5048609;28;20061;-76
2021/06/26 08:33:19;;;;;;;10.10;7.00;;;20.80;92.10;;;;;;5047485;28;20071;-76
2021/06/26 08:35:45;;;;;;;14.88;6.63;;;20.50;90.20;;;;;;5047274;28;20129;-76
2021/06/26 08:38:11;;;;;;;9.88;6.80;;;20.60;91.00;;;;;;5041535;28;20045;-76
2021/06/26 08:40:37;;;;;;;8.45;6.55;;;20.90;91.10;;;;;;5030918;28;20573;-77
2021/06/26 08:43:03;;;;;;;10.85;7.68;;;21.20;90.70;;;;;;5031067;28;20188;-76
2021/06/26 08:45:29;;;;;;;9.25;6.47;;;21.30;90.20;;;;;;5030935;28;20049;-76
2021/06/26 08:47:56;;;;;;;9.88;7.03;;;21.30;90.70;;;;;;5030917;28;20132;-76
2021/06/26 08:50:25;;;;;;;9.85;7.55;;;21.40;88.70;;;;;;5030983;28;20073;-77
2021/06/26 08:52:51;;;;;;;9.43;6.93;;;21.20;90.40;;;;;;5031385;28;20042;-76
2021/06/26 08:55:17;;;;;;;8.40;5.88;;;21.00;89.20;;;;;;5030948;28;20041;-76
2021/06/26 08:57:45;;;;;;;13.38;8.60;;;21.10;90.00;;;;;;5049564;28;20040;-76
2021/06/26 09:00:24;;;;;;;8.52;6.18;;;20.60;88.60;;;;;;5051174;28;20032;-76
2021/06/26 09:02:50;;;;;;;10.05;6.80;;;20.60;91.50;;;;;;5051712;28;20053;-76
2021/06/26 09:05:27;;;;;;;11.88;6.82;;;21.10;90.30;;;;;;5052141;28;20060;-76
2021/06/26 09:07:53;;;;;;;11.68;8.45;;;21.90;89.30;;;;;;5052946;28;20087;-76
2021/06/26 09:10:22;;;;;;;8.73;7.05;;;22.00;84.70;;;;;;5053612;28;20517;-79
2021/06/26 09:12:50;;;;;;;9.52;6.70;;;21.80;86.60;;;;;;5051407;28;20055;-79
2021/06/26 09:15:27;;;;;;;11.88;7.43;;;21.80;90.10;;;;;;5051314;28;20049;-78
2021/06/26 09:17:56;;;;;;;9.02;6.38;;;21.70;90.00;;;;;;5051723;28;20045;-79
2021/06/26 09:20:36;;;;;;;11.68;7.35;;;21.50;89.40;;;;;;5053141;28;20056;-78
2021/06/26 09:23:04;;;;;;;14.00;7.88;;;21.20;88.90;;;;;;5053156;28;20489;-79
2021/06/26 09:25:30;;;;;;;9.73;7.00;;;20.90;90.70;;;;;;5050181;28;20067;-78
2021/06/26 09:28:01;;;;;;;9.85;6.72;;;20.60;90.10;;;;;;5039885;28;20080;-78
2021/06/26 09:30:42;;;;;;;10.15;7.40;;;20.40;90.60;;;;;;5050331;28;20106;-79
2021/06/26 09:33:15;;;;;;;8.93;6.30;;;20.10;91.30;;;;;;5043103;28;20552;-78
2021/06/26 09:35:45;;;;;;;10.52;6.82;;;20.10;91.60;;;;;;5050721;28;20135;-78
2021/06/26 09:38:12;;;;;;;8.75;6.63;;;20.10;93.00;;;;;;5051335;28;20132;-78
2021/06/26 09:40:40;;;;;;;8.82;6.35;;;20.40;91.90;;;;;;5049790;28;20041;-79
2021/06/26 09:43:07;;;;;;;10.65;7.05;;;20.30;90.70;;;;;;5049952;28;20127;-78
2021/06/26 09:45:33;;;;;;;8.93;6.70;;;20.30;91.30;;;;;;5050974;28;20045;-78
2021/06/26 09:48:05;;;;;;;9.52;7.15;;;20.40;92.30;;;;;;5050117;28;20128;-78
2021/06/26 09:50:31;;;;;;;9.27;6.70;;;20.50;91.80;;;;;;5050057;28;20115;-78
2021/06/26 09:53:00;;;;;;;;;;;20.60;92.10;;;;;;5050516;28;20041;-78
2021/06/26 09:55:48;;;;;;;7.43;6.60;;;20.60;91.50;;;;;;5050646;28;19921;-77
2021/06/26 09:58:17;;;;;;;8.63;7.05;;;20.80;91.70;;;;;;5030859;28;20041;-79
2021/06/26 10:00:43;;;;;;;9.57;7.75;;;20.90;90.40;;;;;;5038670;28;20063;-79
2021/06/26 10:03:19;;;;;;;10.18;7.07;;;21.10;90.40;;;;;;5039867;28;20091;-78
2021/06/26 10:05:46;;;;;;;10.07;6.45;;;21.10;90.00;;;;;;5036778;28;20505;-77
2021/06/26 10:08:14;;;;;;;11.40;6.55;;;21.30;91.00;;;;;;5042169;28;20052;-76
2021/06/26 10:10:40;;;;;;;9.30;6.97;;;21.50;90.30;;;;;;5049957;28;20037;-77
2021/06/26 10:13:09;;;;;;;7.40;6.30;;;21.70;88.10;;;;;;5049145;28;20099;-77
2021/06/26 10:15:35;;;;;;;7.35;5.80;;;21.90;90.00;;;;;;5050186;28;20450;-77
2021/06/26 10:18:01;;;;;;;13.68;6.15;;;21.80;89.50;;;;;;5050262;28;20132;-76
2021/06/26 10:20:28;;;;;;;12.48;7.00;;;21.70;90.30;;;;;;5049553;28;20043;-75
2021/06/26 10:22:57;;;;;;;10.07;6.15;;;21.60;85.20;;;;;;5049602;28;20033;-76
2021/06/26 10:25:38;;;;;;;9.52;5.82;;;21.50;85.50;;;;;;5050339;28;20075;-75
2021/06/26 10:28:17;;;;;;;10.68;6.57;;;21.40;90.40;;;;;;5050365;28;20045;-75
2021/06/26 10:30:55;;;;;;;8.45;6.20;;;21.40;85.70;;;;;;5050137;28;20127;-73
2021/06/26 10:33:26;;;;;;;8.55;6.10;;;21.10;88.00;;;;;;5050564;28;20076;-78
2021/06/26 10:35:55;;;;;;;9.15;6.50;;;21.10;89.60;;;;;;5051829;28;20094;-77
2021/06/26 10:38:22;;;;;;;15.88;6.60;;;20.90;87.20;;;;;;5030509;28;20068;-79
2021/06/26 10:40:50;;;;;;;13.15;6.22;;;21.00;90.30;;;;;;5029845;28;20052;-79
2021/06/26 10:43:22;;;;;;;7.18;5.60;;;21.10;89.60;;;;;;5029589;28;20042;-76
2021/06/26 10:45:49;;;;;;;10.15;6.70;;;21.10;88.60;;;;;;5029858;28;20044;-76
2021/06/26 10:48:24;;;;;;;7.57;5.75;;;21.20;87.50;;;;;;5030632;28;20479;-76
2021/06/26 10:50:53;;;;;;;8.13;6.10;;;21.40;89.70;;;;;;5030829;28;20459;-76
2021/06/26 10:53:25;;;;;;;9.43;6.55;;;21.50;86.70;;;;;;5028334;28;20268;-75
2021/06/26 10:56:01;;;;;;;7.97;5.65;;;21.10;87.70;;;;;;5034101;28;20033;-75
2021/06/26 10:58:33;;;;;;;8.05;6.05;;;20.90;90.20;;;;;;5048960;28;20140;-74
2021/06/26 11:01:09;;;;;;;8.23;5.53;;;20.80;89.40;;;;;;5049392;28;20040;-77
2021/06/26 11:03:35;;;;;;;12.95;5.95;;;20.80;89.50;;;;;;5048936;28;20099;-74
2021/06/26 11:06:12;;;;;;;;;;;20.60;90.30;;;;;;5050177;28;20041;-75
2021/06/26 11:08:38;;;;;;;7.88;5.85;;;20.30;91.10;;;;;;5034852;28;19925;-74
2021/06/26 11:11:03;;;;;;;;;;;20.20;91.70;;;;;;5029779;28;20041;-74
2021/06/26 11:13:30;;;;;;;8.35;6.35;;;20.20;92.00;;;;;;5028725;28;19979;-74
2021/06/26 11:16:06;;;;;;;8.40;6.00;;;20.40;91.70;;;;;;5028782;28;20046;-74
2021/06/26 11:18:32;;;;;;;9.63;6.50;;;20.50;90.20;;;;;;5029302;28;20120;-76
2021/06/26 11:20:59;;;;;;;8.75;5.57;;;20.40;88.30;;;;;;5033338;28;20045;-76
2021/06/26 11:23:25;;;;;;;7.97;5.63;;;20.70;90.50;;;;;;5049207;28;20128;-76
2021/06/26 11:25:51;;;;;;;8.85;5.80;;;20.90;90.30;;;;;;5049484;28;20094;-79
2021/06/26 11:28:18;;;;;;;10.82;7.32;;;21.10;86.70;;;;;;5048740;28;20055;-79
2021/06/26 11:30:56;;;;;;;12.43;6.18;;;21.40;88.40;;;;;;5047845;28;20064;-77
2021/06/26 11:33:29;;;;;;;6.93;5.65;;;21.40;87.50;;;;;;5041519;28;20029;-76
2021/06/26 11:35:55;;;;;;;9.93;6.10;;;21.40;87.40;;;;;;5049352;28;20041;-76
2021/06/26 11:38:20;;;;;;;8.07;6.40;;;21.40;86.60;;;;;;5040346;28;20076;-76
2021/06/26 11:40:47;;;;;;;8.52;6.57;;;21.20;90.60;;;;;;5048426;28;20083;-76
2021/06/26 11:43:12;;;;;;;9.30;5.85;;;21.10;88.40;;;;;;5048505;28;20049;-76
2021/06/26 11:45:40;;;;;;;;;;;21.00;88.30;;;;;;5050500;28;20037;-76
2021/06/26 11:48:08;;;;;;;;;;;21.10;89.30;;;;;;5049351;28;19921;-79
2021/06/26 11:50:40;;;;;;;8.68;6.10;;;21.10;87.90;;;;;;5048795;28;19921;-78
2021/06/26 11:53:09;;;;;;;7.95;5.97;;;21.20;89.60;;;;;;5048081;28;20048;-78
2021/06/26 11:55:40;;;;;;;5.72;4.70;;;21.20;87.30;;;;;;5047803;28;20045;-77
2021/06/26 11:58:06;;;;;;;8.07;5.60;;;21.40;87.00;;;;;;5030229;28;20053;-77
2021/06/26 12:00:32;;;;;;;15.00;5.75;;;21.50;90.00;;;;;;5028816;28;20047;-78
2021/06/26 12:02:58;;;;;;;8.52;5.90;;;21.60;87.60;;;;;;5028984;28;20128;-77
2021/06/26 12:05:24;;;;;;;12.38;6.25;;;21.70;89.00;;;;;;5041633;28;20067;-78
2021/06/26 12:07:51;;;;;;;10.15;5.88;;;21.60;87.30;;;;;;5045711;28;20103;-77
2021/06/26 12:10:20;;;;;;;6.03;5.05;;;21.40;88.00;;;;;;5038120;28;20073;-75
2021/06/26 12:12:47;;;;;;;7.43;5.32;;;21.30;88.50;;;;;;5051906;28;20049;-75
2021/06/26 12:15:14;;;;;;;7.13;4.90;;;21.20;86.50;;;;;;5052884;28;20040;-76
2021/06/26 12:17:39;;;;;;;5.60;5.00;;;21.20;86.90;;;;;;5052608;28;20045;-75
2021/06/26 12:20:11;;;;;;;;;;;21.30;89.30;;;;;;5052268;28;20044;-76
2021/06/26 12:22:37;;;;;;;7.13;5.07;;;21.30;87.50;;;;;;5052093;28;19931;-75
2021/06/26 12:25:16;;;;;;;9.57;5.50;;;21.30;87.90;;;;;;5052002;28;20045;-75
2021/06/26 12:27:43;;;;;;;7.60;5.47;;;21.20;89.30;;;;;;5052075;28;20048;-75
2021/06/26 12:30:16;;;;;;;6.28;5.07;;;21.00;86.90;;;;;;5050745;28;20041;-75
2021/06/26 12:32:44;;;;;;;6.55;4.95;;;21.00;89.20;;;;;;5049524;28;20437;-76
2021/06/26 12:35:12;;;;;;;6.88;4.80;;;21.00;90.50;;;;;;5049049;28;20041;-76
2021/06/26 12:37:40;;;;;;;10.18;5.68;;;20.80;87.70;;;;;;5047227;28;20046;-76
2021/06/26 12:40:15;;;;;;;11.23;5.45;;;20.80;89.30;;;;;;5031987;28;20703;-76
2021/06/26 12:43:06;;;;;;;8.20;5.00;;;20.70;90.30;;;;;;5031048;28;20120;-77
2021/06/26 12:45:57;;;;;;;6.25;4.97;;;20.70;90.20;;;;;;5020236;28;20381;-76
2021/06/26 12:48:28;;;;;;;6.03;4.88;;;20.80;90.20;;;;;;5027668;28;20419;-77
2021/06/26 12:53:31;;;;;;;7.38;5.80;;;20.80;90.80;;;;;;5032735;28;20045;-77
2021/06/26 12:56:04;;;;;;;7.78;6.30;;;20.80;91.60;;;;;;5035079;28;20033;-77
2021/06/26 12:58:29;;;;;;;5.18;4.68;;;20.90;90.60;;;;;;5051354;28;20044;-76